Time;durP1;ratioP1;P1;durP2;ratioP2;P2;SDS_P1;SDS_P2;PMS_P1;PMS_P2;Temp;Humidity;BMP_temperature;BMP_pressure;BME280_temperature;BME280_humidity;BME280_pressure;Samples;Min_cycle;Max_cycle;Signal;HPM_P1;HPM_P2
2023/08/31 00:02:09;;;;;;;5.72;2.08;;;;;;;;;;20999365;28;20057;-62
2023/08/31 00:12:10;;;;;;;6.38;1.92;;;;;;;;;;20998566;28;20043;-62
2023/08/31 00:22:12;;;;;;;4.72;2.00;;;;;;;;;;20997621;28;20059;-62
2023/08/31 00:32:13;;;;;;;4.68;2.15;;;;;;;;;;20996341;28;20041;-63
2023/08/31 00:42:14;;;;;;;3.28;1.45;;;;;;;;;;20996672;28;20044;-62
2023/08/31 00:52:16;;;;;;;4.47;2.00;;;;;;;;;;20996484;28;20082;-61
2023/08/31 01:02:26;;;;;;;4.75;1.70;;;;;;;;;;20996900;28;20416;-62
2023/08/31 01:12:36;;;;;;;2.95;1.25;;;;;;;;;;20996754;28;20053;-61
2023/08/31 01:22:37;;;;;;;2.72;1.40;;;;;;;;;;20996445;28;20052;-61
2023/08/31 01:32:38;;;;;;;4.97;1.40;;;;;;;;;;20995938;28;20375;-62
2023/08/31 01:42:40;;;;;;;2.47;1.67;;;;;;;;;;21008273;28;20374;-62
2023/08/31 01:52:41;;;;;;;4.07;1.42;;;;;;;;;;21010795;28;20049;-61
2023/08/31 02:02:42;;;;;;;2.85;1.50;;;;;;;;;;21008951;28;20044;-62
2023/08/31 02:12:44;;;;;;;5.85;1.52;;;;;;;;;;21007072;28;20132;-62
2023/08/31 02:22:45;;;;;;;8.82;1.48;;;;;;;;;;21008672;28;20118;-62
2023/08/31 02:32:47;;;;;;;3.00;1.20;;;;;;;;;;21007926;28;20054;-62
2023/08/31 02:42:52;;;;;;;4.50;1.75;;;;;;;;;;21007091;28;20121;-61
2023/08/31 02:52:53;;;;;;;5.80;1.60;;;;;;;;;;21004577;28;20132;-62
2023/08/31 03:02:54;;;;;;;4.45;1.52;;;;;;;;;;21005445;28;20123;-62
2023/08/31 03:12:55;;;;;;;3.95;1.58;;;;;;;;;;21004458;28;20393;-62
2023/08/31 03:22:57;;;;;;;3.45;1.50;;;;;;;;;;21003629;28;20056;-63
2023/08/31 03:32:58;;;;;;;2.67;1.40;;;;;;;;;;21002865;28;20503;-61
2023/08/31 03:42:59;;;;;;;3.17;1.50;;;;;;;;;;21002095;28;20130;-61
2023/08/31 03:53:00;;;;;;;4.15;1.42;;;;;;;;;;21000684;28;20059;-62
2023/08/31 04:03:01;;;;;;;4.13;1.30;;;;;;;;;;20999686;28;20102;-62
2023/08/31 04:13:02;;;;;;;3.45;1.45;;;;;;;;;;20999550;28;20048;-61
2023/08/31 04:23:03;;;;;;;2.13;1.30;;;;;;;;;;20997697;28;20127;-61
2023/08/31 04:33:05;;;;;;;5.55;1.30;;;;;;;;;;20997081;28;20048;-62
2023/08/31 04:43:06;;;;;;;4.55;1.58;;;;;;;;;;20998084;28;20513;-62
2023/08/31 04:53:07;;;;;;;1.63;1.10;;;;;;;;;;20996481;28;20509;-61
2023/08/31 05:03:08;;;;;;;5.20;1.33;;;;;;;;;;20996964;28;20462;-62
2023/08/31 05:13:09;;;;;;;1.75;1.05;;;;;;;;;;21006329;28;20101;-61
2023/08/31 05:23:10;;;;;;;3.22;1.38;;;;;;;;;;21023279;28;20130;-62
2023/08/31 05:33:11;;;;;;;7.28;1.63;;;;;;;;;;21023126;28;20120;-61
2023/08/31 05:43:13;;;;;;;5.00;1.58;;;;;;;;;;21022562;28;20145;-61
2023/08/31 05:53:14;;;;;;;4.65;1.70;;;;;;;;;;21021353;28;20068;-62
2023/08/31 06:03:15;;;;;;;15.45;6.20;;;;;;;;;;21021929;28;20036;-62
2023/08/31 06:13:16;;;;;;;2.33;1.38;;;;;;;;;;21021574;28;20051;-61
2023/08/31 06:23:18;;;;;;;6.88;1.48;;;;;;;;;;21016904;28;20049;-63
2023/08/31 06:33:21;;;;;;;5.82;1.60;;;;;;;;;;21007628;28;20416;-61
2023/08/31 06:43:22;;;;;;;3.63;1.40;;;;;;;;;;21006998;28;20375;-61
2023/08/31 06:53:24;;;;;;;5.63;1.30;;;;;;;;;;21005600;28;20069;-61
2023/08/31 07:03:25;;;;;;;3.75;1.60;;;;;;;;;;21003840;28;20048;-61
2023/08/31 07:13:26;;;;;;;4.15;1.52;;;;;;;;;;21004540;28;20044;-61
2023/08/31 07:23:27;;;;;;;4.40;1.48;;;;;;;;;;21004025;28;20076;-61
2023/08/31 07:33:30;;;;;;;5.22;1.60;;;;;;;;;;21002947;28;20482;-63
2023/08/31 07:43:31;;;;;;;11.18;1.55;;;;;;;;;;21002151;28;20478;-62
2023/08/31 07:53:32;;;;;;;8.95;1.52;;;;;;;;;;20999627;28;20060;-62
2023/08/31 08:03:33;;;;;;;9.70;1.70;;;;;;;;;;21000248;28;20047;-61
2023/08/31 08:13:34;;;;;;;5.22;1.40;;;;;;;;;;20999986;28;20045;-64
2023/08/31 08:23:35;;;;;;;7.57;1.52;;;;;;;;;;20999483;28;20446;-61
2023/08/31 08:33:36;;;;;;;7.65;1.50;;;;;;;;;;20997477;28;20037;-61
2023/08/31 08:43:38;;;;;;;3.53;1.58;;;;;;;;;;20998125;28;20044;-62
2023/08/31 08:53:40;;;;;;;5.35;1.45;;;;;;;;;;20995638;28;20056;-62
2023/08/31 09:03:41;;;;;;;4.90;1.77;;;;;;;;;;20997161;28;20115;-61
2023/08/31 09:13:42;;;;;;;3.95;1.25;;;;;;;;;;20996919;28;20044;-62
2023/08/31 09:23:46;;;;;;;4.13;1.10;;;;;;;;;;20995025;28;20126;-61
2023/08/31 09:33:51;;;;;;;6.03;2.30;;;;;;;;;;20995863;28;20117;-62
2023/08/31 09:43:52;;;;;;;5.40;1.33;;;;;;;;;;20995790;28;20047;-61
2023/08/31 09:53:55;;;;;;;8.38;2.47;;;;;;;;;;20993488;28;20052;-62
2023/08/31 10:03:57;;;;;;;5.97;2.10;;;;;;;;;;21007176;28;20044;-61
2023/08/31 10:13:58;;;;;;;7.13;1.65;;;;;;;;;;21007835;28;20045;-62
2023/08/31 10:23:59;;;;;;;6.85;1.70;;;;;;;;;;21007715;28;20048;-61
2023/08/31 10:34:05;;;;;;;2.28;1.10;;;;;;;;;;21007802;28;20044;-62
2023/08/31 10:44:26;;;;;;;6.38;1.63;;;;;;;;;;21005973;28;20036;-62
2023/08/31 10:54:31;;;;;;;3.65;1.45;;;;;;;;;;21005810;28;20059;-61
2023/08/31 11:04:52;;;;;;;3.13;1.23;;;;;;;;;;21005660;28;20117;-62
2023/08/31 11:14:53;;;;;;;6.20;1.48;;;;;;;;;;21003071;28;20075;-62
2023/08/31 11:24:54;;;;;;;5.30;1.65;;;;;;;;;;21002956;28;20084;-61
2023/08/31 11:34:55;;;;;;;3.88;1.23;;;;;;;;;;21001913;28;20086;-62
2023/08/31 11:44:56;;;;;;;4.25;1.75;;;;;;;;;;21002620;28;20418;-62
2023/08/31 11:54:57;;;;;;;6.95;1.60;;;;;;;;;;21001412;28;20052;-61
2023/08/31 12:04:58;;;;;;;5.90;2.20;;;;;;;;;;21000542;28;20051;-62
2023/08/31 12:15:03;;;;;;;10.88;4.70;;;;;;;;;;21000049;28;20123;-62
2023/08/31 12:25:05;;;;;;;7.63;2.40;;;;;;;;;;20998254;28;20063;-62
2023/08/31 12:35:06;;;;;;;4.80;1.50;;;;;;;;;;20997730;28;20052;-61
2023/08/31 12:45:08;;;;;;;3.10;1.30;;;;;;;;;;20998284;28;20489;-61
2023/08/31 12:55:09;;;;;;;3.38;1.88;;;;;;;;;;20996907;28;20048;-63
2023/08/31 13:05:11;;;;;;;3.40;1.83;;;;;;;;;;20997072;28;20109;-62
2023/08/31 13:15:13;;;;;;;4.00;1.65;;;;;;;;;;20996981;28;20098;-64
2023/08/31 13:25:14;;;;;;;2.88;1.30;;;;;;;;;;20996490;28;20044;-61
2023/08/31 13:35:15;;;;;;;3.95;2.90;;;;;;;;;;21003510;28;20490;-63
2023/08/31 13:45:16;;;;;;;3.47;1.52;;;;;;;;;;21012210;28;20379;-63
2023/08/31 13:55:17;;;;;;;4.28;1.90;;;;;;;;;;21012306;28;20060;-62
2023/08/31 14:05:19;;;;;;;4.40;3.08;;;;;;;;;;21009175;28;20044;-62
2023/08/31 14:15:21;;;;;;;3.83;1.70;;;;;;;;;;21009729;28;20469;-62
2023/08/31 14:25:24;;;;;;;3.30;1.42;;;;;;;;;;21009012;28;20425;-62
2023/08/31 14:35:25;;;;;;;9.90;1.75;;;;;;;;;;21008369;28;20044;-61
2023/08/31 14:45:27;;;;;;;5.63;1.85;;;;;;;;;;21006298;28;20098;-62
2023/08/31 14:55:28;;;;;;;5.25;1.40;;;;;;;;;;21007015;28;20060;-61
2023/08/31 15:05:30;;;;;;;3.33;1.35;;;;;;;;;;21005434;28;20185;-62
2023/08/31 15:15:31;;;;;;;3.13;1.95;;;;;;;;;;21004900;28;20401;-62
2023/08/31 15:25:32;;;;;;;2.55;1.40;;;;;;;;;;21003068;28;20045;-62
2023/08/31 15:35:33;;;;;;;8.57;6.05;;;;;;;;;;21001851;28;20039;-63
2023/08/31 15:45:34;;;;;;;2.00;1.30;;;;;;;;;;21002523;28;20040;-63
2023/08/31 15:55:36;;;;;;;4.13;1.88;;;;;;;;;;21000819;28;20051;-62
2023/08/31 16:05:38;;;;;;;4.20;2.20;;;;;;;;;;21001883;28;20049;-63
2023/08/31 16:15:45;;;;;;;3.03;1.30;;;;;;;;;;20998812;28;20102;-62
2023/08/31 16:25:46;;;;;;;4.25;1.55;;;;;;;;;;20999458;28;20045;-62
2023/08/31 16:35:47;;;;;;;7.47;5.00;;;;;;;;;;20998360;28;20508;-61
2023/08/31 16:45:49;;;;;;;5.05;1.77;;;;;;;;;;20997897;28;20114;-63
2023/08/31 16:55:50;;;;;;;6.80;2.20;;;;;;;;;;20997468;28;20095;-63
2023/08/31 17:05:52;;;;;;;5.32;3.20;;;;;;;;;;20994762;28;20044;-63
2023/08/31 17:15:53;;;;;;;2.97;1.60;;;;;;;;;;20995056;28;20091;-63
2023/08/31 17:25:54;;;;;;;4.15;2.08;;;;;;;;;;20996039;28;20053;-62
2023/08/31 17:35:55;;;;;;;3.65;1.92;;;;;;;;;;20995735;28;20123;-63
2023/08/31 17:45:56;;;;;;;3.03;1.73;;;;;;;;;;20994994;28;20044;-62
2023/08/31 17:55:57;;;;;;;4.00;1.60;;;;;;;;;;20994067;28;20067;-62
2023/08/31 18:05:58;;;;;;;9.65;4.57;;;;;;;;;;20994475;28;20059;-61
2023/08/31 18:16:00;;;;;;;5.07;2.42;;;;;;;;;;20993698;28;20040;-62
2023/08/31 18:26:03;;;;;;;2.83;1.90;;;;;;;;;;21005959;28;20048;-62
2023/08/31 18:36:04;;;;;;;5.03;2.30;;;;;;;;;;21008101;28;20121;-63
2023/08/31 18:46:05;;;;;;;5.72;2.45;;;;;;;;;;21007015;28;20127;-63
2023/08/31 18:56:06;;;;;;;5.05;3.22;;;;;;;;;;21005152;28;20066;-63
2023/08/31 19:06:07;;;;;;;3.53;2.35;;;;;;;;;;21005529;28;20060;-63
2023/08/31 19:16:10;;;;;;;4.93;3.03;;;;;;;;;;21004570;28;20382;-63
2023/08/31 19:26:14;;;;;;;9.82;3.92;;;;;;;;;;21003873;28;20094;-62
2023/08/31 19:36:15;;;;;;;6.88;3.65;;;;;;;;;;21002534;28;20120;-62
2023/08/31 19:46:16;;;;;;;9.95;4.30;;;;;;;;;;21000776;28;20048;-62
2023/08/31 19:56:18;;;;;;;13.40;7.35;;;;;;;;;;21000351;28;20509;-62
2023/08/31 20:06:19;;;;;;;9.88;6.10;;;;;;;;;;21000416;28;20047;-62
2023/08/31 20:16:20;;;;;;;18.20;9.30;;;;;;;;;;20999137;28;20044;-62
2023/08/31 20:26:21;;;;;;;14.00;7.60;;;;;;;;;;20999742;28;20052;-63
2023/08/31 20:36:22;;;;;;;11.27;5.50;;;;;;;;;;20998523;28;20052;-63
2023/08/31 20:46:23;;;;;;;14.35;6.10;;;;;;;;;;20997155;28;20056;-62
2023/08/31 20:56:26;;;;;;;9.68;5.35;;;;;;;;;;20996705;28;20331;-63
2023/08/31 21:06:28;;;;;;;12.00;4.50;;;;;;;;;;20995405;28;20044;-63
2023/08/31 21:16:32;;;;;;;11.73;6.28;;;;;;;;;;20996714;28;20546;-62
2023/08/31 21:26:37;;;;;;;13.32;6.60;;;;;;;;;;20996494;28;20123;-63
2023/08/31 21:36:38;;;;;;;18.33;7.87;;;;;;;;;;20996174;28;20112;-63
2023/08/31 21:46:40;;;;;;;14.25;6.75;;;;;;;;;;20995626;28;20037;-63
2023/08/31 21:56:41;;;;;;;8.63;4.50;;;;;;;;;;21001225;28;20118;-62
2023/08/31 22:06:43;;;;;;;11.70;5.32;;;;;;;;;;21010391;28;20040;-62
2023/08/31 22:16:44;;;;;;;11.55;5.63;;;;;;;;;;21010246;28;20397;-62
2023/08/31 22:26:45;;;;;;;7.78;3.80;;;;;;;;;;21007855;28;20486;-63
2023/08/31 22:36:46;;;;;;;9.40;5.32;;;;;;;;;;21008503;28;20044;-62
2023/08/31 22:46:47;;;;;;;7.85;5.30;;;;;;;;;;21007248;28;20123;-62
2023/08/31 22:56:49;;;;;;;10.30;6.55;;;;;;;;;;21005163;28;20060;-62
2023/08/31 23:06:50;;;;;;;15.80;6.22;;;;;;;;;;21004662;28;20063;-63
2023/08/31 23:16:51;;;;;;;12.27;4.88;;;;;;;;;;21004969;28;20482;-63
2023/08/31 23:26:52;;;;;;;11.02;5.10;;;;;;;;;;21002825;28;20044;-62
2023/08/31 23:36:53;;;;;;;16.77;7.47;;;;;;;;;;21003288;28;20044;-63
2023/08/31 23:46:54;;;;;;;14.35;5.20;;;;;;;;;;21002729;28;20444;-62
2023/08/31 23:56:55;;;;;;;8.10;3.72;;;;;;;;;;21002266;28;20543;-62
